Time;durP1;ratioP1;P1;durP2;ratioP2;P2;SDS_P1;SDS_P2;PMS_P1;PMS_P2;Temp;Humidity;BMP_temperature;BMP_pressure;BME280_temperature;BME280_humidity;BME280_pressure;Samples;Min_cycle;Max_cycle;Signal;HPM_P1;HPM_P2
2022/04/06 00:01:47;;;;;;;8.60;3.60;;;;;;;6.07;100.00;99043.63;10591517;28;20211;-73
2022/04/06 00:06:53;;;;;;;9.10;4.20;;;;;;;6.04;100.00;99047.97;10591024;28;20227;-69
2022/04/06 00:11:56;;;;;;;9.10;4.03;;;;;;;6.09;100.00;99039.28;10591205;28;20271;-68
2022/04/06 00:17:03;;;;;;;11.07;4.40;;;;;;;6.13;100.00;99033.22;10591861;28;20612;-68
2022/04/06 00:22:08;;;;;;;9.60;4.47;;;;;;;6.15;100.00;99036.66;10590701;28;20550;-67
2022/04/06 00:27:12;;;;;;;9.53;4.50;;;;;;;6.22;100.00;99038.25;10590730;28;20558;-71
2022/04/06 00:32:15;;;;;;;8.90;4.90;;;;;;;6.29;100.00;99045.03;10590332;28;20215;-66
2022/04/06 00:37:20;;;;;;;10.13;4.73;;;;;;;6.37;100.00;99038.03;10590201;28;20215;-67
2022/04/06 00:42:23;;;;;;;12.90;5.73;;;;;;;6.39;100.00;99036.28;10589797;28;20211;-68
2022/04/06 00:47:26;;;;;;;8.27;4.77;;;;;;;6.54;100.00;99043.78;10590025;28;20230;-67
2022/04/06 00:52:31;;;;;;;10.63;5.63;;;;;;;6.62;100.00;99038.53;10589406;28;20755;-66
2022/04/06 00:57:35;;;;;;;10.70;6.17;;;;;;;6.59;100.00;99017.97;10589298;28;20363;-67
2022/04/06 01:02:39;;;;;;;10.30;5.40;;;;;;;6.65;100.00;99023.00;10588383;28;20234;-66
2022/04/06 01:07:49;;;;;;;10.30;5.60;;;;;;;6.79;100.00;99021.91;10588732;28;20236;-68
2022/04/06 01:12:52;;;;;;;9.13;5.27;;;;;;;6.84;100.00;99024.41;10589189;28;20206;-68
2022/04/06 01:17:55;;;;;;;11.40;5.20;;;;;;;6.80;100.00;99031.34;10588391;28;20256;-65
2022/04/06 01:23:00;;;;;;;11.00;5.27;;;;;;;6.86;100.00;99039.00;10588299;28;20214;-65
2022/04/06 01:28:03;;;;;;;10.93;5.20;;;;;;;6.95;100.00;99031.09;10587918;28;20237;-69
2022/04/06 01:33:08;;;;;;;10.20;5.47;;;;;;;6.81;100.00;99032.22;10587835;28;20221;-67
2022/04/06 01:38:12;;;;;;;9.93;5.30;;;;;;;6.81;100.00;99025.34;10589552;28;20214;-68
2022/04/06 01:43:15;;;;;;;10.70;5.30;;;;;;;6.75;100.00;99028.00;10587806;28;20723;-65
2022/04/06 01:48:19;;;;;;;9.93;5.53;;;;;;;6.75;100.00;99027.13;10587507;28;20229;-67
2022/04/06 01:53:25;;;;;;;17.70;7.37;;;;;;;6.70;100.00;99024.63;10586652;27;20249;-70
2022/04/06 01:58:29;;;;;;;13.13;6.90;;;;;;;6.70;100.00;99021.19;10586898;28;20233;-69
2022/04/06 02:03:32;;;;;;;13.30;6.57;;;;;;;6.69;100.00;99014.34;10586811;28;20234;-65
2022/04/06 02:08:36;;;;;;;12.93;7.03;;;;;;;6.69;100.00;99017.78;10586699;28;20222;-67
2022/04/06 02:13:40;;;;;;;10.40;6.13;;;;;;;6.72;100.00;99009.16;10585312;28;20229;-67
2022/04/06 02:18:43;;;;;;;10.40;6.20;;;;;;;6.70;100.00;99022.06;10586025;28;20225;-68
2022/04/06 02:23:48;;;;;;;13.00;7.43;;;;;;;6.71;100.00;99028.09;10585876;28;20282;-69
2022/04/06 02:28:51;;;;;;;13.17;6.87;;;;;;;6.72;100.00;99028.06;10585676;28;20252;-68
2022/04/06 02:33:54;;;;;;;11.20;6.57;;;;;;;6.67;100.00;99035.00;10586137;28;20224;-67
2022/04/06 02:39:00;;;;;;;11.33;6.73;;;;;;;6.65;100.00;99028.16;10585382;28;20655;-63
2022/04/06 02:44:03;;;;;;;63.77;32.87;;;;;;;6.65;100.00;99034.19;10585238;28;20222;-70
2022/04/06 02:49:07;;;;;;;12.67;7.37;;;;;;;6.40;100.00;99055.19;10585081;28;20529;-67
2022/04/06 02:54:12;;;;;;;10.80;5.83;;;;;;;6.16;100.00;99052.97;10584612;28;20234;-67
2022/04/06 02:59:15;;;;;;;16.20;6.77;;;;;;;6.09;100.00;99072.75;10584719;28;20190;-67
2022/04/06 03:04:18;;;;;;;14.00;7.27;;;;;;;5.92;100.00;99068.72;10585308;28;20245;-68
2022/04/06 03:09:23;;;;;;;16.03;6.37;;;;;;;5.84;100.00;99079.97;10584644;28;20195;-65
2022/04/06 03:14:26;;;;;;;14.93;7.30;;;;;;;5.80;100.00;99078.25;10584245;28;20194;-69
2022/04/06 03:19:29;;;;;;;13.30;7.57;;;;;;;5.71;100.00;99100.69;10584204;28;20187;-66
2022/04/06 03:24:34;;;;;;;13.03;7.13;;;;;;;5.68;100.00;99101.56;10584675;28;20283;-68
2022/04/06 03:29:37;;;;;;;11.70;6.07;;;;;;;5.61;100.00;99110.22;10593699;28;20190;-68
2022/04/06 03:34:40;;;;;;;12.57;7.27;;;;;;;5.51;100.00;99113.75;10592968;28;20213;-66
2022/04/06 03:39:45;;;;;;;10.60;5.93;;;;;;;5.48;100.00;99110.34;10592479;28;20213;-68
2022/04/06 03:44:48;;;;;;;12.10;6.47;;;;;;;5.52;100.00;99117.19;10592331;28;20225;-67
2022/04/06 03:49:51;;;;;;;14.23;6.90;;;;;;;5.50;100.00;99134.34;10592057;28;20519;-67
2022/04/06 03:54:56;;;;;;;12.87;7.17;;;;;;;5.48;100.00;99131.81;10591772;28;20241;-66
2022/04/06 03:59:59;;;;;;;11.23;6.67;;;;;;;5.47;100.00;99142.94;10592587;28;20201;-69
2022/04/06 04:05:04;;;;;;;12.17;7.77;;;;;;;5.49;100.00;99148.06;10591403;28;20213;-70
2022/04/06 04:10:10;;;;;;;13.43;7.73;;;;;;;5.50;100.00;99147.22;10588836;28;20201;-68
2022/04/06 04:15:14;;;;;;;12.43;7.83;;;;;;;5.39;100.00;99162.75;10587604;28;20676;-67
2022/04/06 04:20:17;;;;;;;14.43;8.20;;;;;;;5.30;100.00;99162.81;10562518;28;20207;-68
2022/04/06 04:25:22;;;;;;;13.80;7.70;;;;;;;5.35;100.00;99166.22;10546160;28;20222;-67
2022/04/06 04:30:25;;;;;;;13.37;7.30;;;;;;;5.36;100.00;99167.06;10539553;28;20659;-67
2022/04/06 04:35:29;;;;;;;12.83;8.37;;;;;;;5.36;100.00;99167.94;10520907;28;20212;-66
2022/04/06 04:40:33;;;;;;;15.70;9.03;;;;;;;5.33;100.00;99167.09;10505530;28;20198;-70
2022/04/06 04:45:36;;;;;;;14.43;7.93;;;;;;;5.33;100.00;99174.81;10544279;28;20680;-67
2022/04/06 04:50:40;;;;;;;13.87;8.00;;;;;;;5.35;100.00;99173.94;10543924;28;20721;-67
2022/04/06 04:55:45;;;;;;;15.93;7.40;;;;;;;5.33;100.00;99174.81;10544078;28;20733;-68
2022/04/06 05:00:48;;;;;;;13.80;8.10;;;;;;;5.42;100.00;99179.88;10543972;28;20199;-66
2022/04/06 05:05:53;;;;;;;14.53;8.63;;;;;;;5.38;100.00;99194.50;10543309;28;20653;-67
2022/04/06 05:11:02;;;;;;;14.73;8.30;;;;;;;5.38;100.00;99199.66;10542904;28;20216;-69
2022/04/06 05:16:05;;;;;;;13.50;8.17;;;;;;;5.38;100.00;99206.50;10542985;28;20237;-64
2022/04/06 05:21:09;;;;;;;16.03;7.70;;;;;;;5.37;100.00;99217.63;10191366;27;9999844;-67
2022/04/06 05:26:13;;;;;;;13.20;7.57;;;;;;;5.50;100.00;99222.72;10542447;28;20220;-68
2022/04/06 05:31:18;;;;;;;11.13;6.67;;;;;;;5.46;100.00;99217.56;10542209;28;20676;-67
2022/04/06 05:36:23;;;;;;;13.00;7.00;;;;;;;5.37;100.00;99239.09;10541911;28;20215;-67
2022/04/06 05:41:28;;;;;;;9.33;5.93;;;;;;;5.47;100.00;99245.03;10541825;28;20840;-67
2022/04/06 05:46:32;;;;;;;6.33;3.10;;;;;;;5.38;100.00;99245.97;10542304;28;20253;-66
2022/04/06 05:51:35;;;;;;;6.40;3.00;;;;;;;5.39;100.00;99244.22;10540730;28;20255;-68
2022/04/06 05:56:40;;;;;;;7.00;2.70;;;;;;;5.33;100.00;99245.09;10541552;28;20688;-68
2022/04/06 06:01:43;;;;;;;5.27;2.67;;;;;;;5.32;100.00;99255.41;10540778;28;20212;-67
2022/04/06 06:06:48;;;;;;;7.50;3.53;;;;;;;5.43;100.00;99257.06;10541518;28;21001;-69
2022/04/06 06:11:54;;;;;;;8.47;3.40;;;;;;;5.54;100.00;99252.66;10540998;28;20671;-69
2022/04/06 06:16:58;;;;;;;9.23;3.77;;;;;;;5.56;100.00;99266.38;10540953;28;20220;-70
2022/04/06 06:22:02;;;;;;;7.43;3.60;;;;;;;5.59;100.00;99270.66;10540274;28;20226;-68
2022/04/06 06:27:06;;;;;;;6.57;3.50;;;;;;;5.62;100.00;99271.50;10540188;28;20789;-68
2022/04/06 06:32:10;;;;;;;7.63;4.13;;;;;;;5.50;100.00;99274.16;10540276;28;20305;-66
2022/04/06 06:37:13;;;;;;;9.57;4.03;;;;;;;5.52;100.00;99262.13;10540321;28;20237;-68
2022/04/06 06:42:18;;;;;;;9.93;3.97;;;;;;;5.50;100.00;99263.88;10546099;28;20549;-72
2022/04/06 06:47:21;;;;;;;7.60;3.37;;;;;;;5.60;100.00;99260.34;10539472;28;20306;-69
2022/04/06 06:52:24;;;;;;;7.63;3.47;;;;;;;5.74;100.00;99258.53;10539207;28;20239;-65
2022/04/06 06:57:29;;;;;;;6.53;3.77;;;;;;;5.74;100.00;99260.25;10539479;28;20223;-65
2022/04/06 07:02:32;;;;;;;10.60;3.63;;;;;;;5.74;100.00;99262.81;10538662;28;20237;-68
2022/04/06 07:07:48;;;;;;;8.90;4.37;;;;;;;5.78;100.00;99270.47;10539758;28;20225;-66
2022/04/06 07:12:54;;;;;;;10.13;4.73;;;;;;;5.82;100.00;99266.16;10538650;28;20218;-66
2022/04/06 07:17:58;;;;;;;12.40;4.43;;;;;;;5.83;100.00;99262.78;10538924;28;20219;-67
2022/04/06 07:23:02;;;;;;;9.97;5.67;;;;;;;5.89;100.00;99260.13;10548716;28;20229;-66
2022/04/06 07:28:07;;;;;;;17.00;7.50;;;;;;;5.93;100.00;99264.38;10541691;28;20264;-66
2022/04/06 07:33:13;;;;;;;12.17;6.97;;;;;;;5.90;100.00;99264.44;10542017;28;20219;-68
2022/04/06 07:38:18;;;;;;;12.10;7.70;;;;;;;6.04;100.00;99262.56;10543144;28;20220;-67
2022/04/06 07:43:22;;;;;;;16.73;8.60;;;;;;;6.05;100.00;99268.56;10541398;28;20211;-68
2022/04/06 07:48:27;;;;;;;17.07;9.20;;;;;;;6.07;100.00;99266.84;10541569;28;20227;-68
2022/04/06 07:53:31;;;;;;;16.57;9.03;;;;;;;6.15;100.00;99265.03;10541051;28;20284;-69
2022/04/06 07:58:36;;;;;;;14.13;8.87;;;;;;;6.18;100.00;99268.41;10541377;28;20564;-66
2022/04/06 08:03:39;;;;;;;12.73;7.73;;;;;;;6.33;100.00;99251.97;10542125;28;20711;-68
2022/04/06 08:08:42;;;;;;;12.60;7.73;;;;;;;6.38;100.00;99250.19;10540981;28;20227;-68
2022/04/06 08:13:47;;;;;;;11.83;7.23;;;;;;;6.48;100.00;99249.22;10544336;28;20668;-65
2022/04/06 08:18:50;;;;;;;11.40;6.53;;;;;;;6.42;100.00;99249.28;10548705;28;20219;-64
2022/04/06 08:23:53;;;;;;;11.03;6.47;;;;;;;6.51;100.00;99247.44;10548190;28;20215;-66
2022/04/06 08:28:58;;;;;;;11.03;6.77;;;;;;;6.47;100.00;99252.66;10549015;28;20231;-68
2022/04/06 08:34:03;;;;;;;10.50;6.50;;;;;;;6.43;100.00;99250.97;10546558;28;20241;-66
2022/04/06 08:39:07;;;;;;;12.60;7.20;;;;;;;6.39;100.00;99255.31;10547798;28;20223;-66
2022/04/06 08:44:11;;;;;;;13.10;7.97;;;;;;;6.43;100.00;99277.63;10547454;28;20221;-66
2022/04/06 08:49:16;;;;;;;12.27;7.50;;;;;;;6.38;100.00;99251.06;10547333;28;20219;-67
2022/04/06 08:54:20;;;;;;;12.13;7.30;;;;;;;6.30;100.00;99283.75;10546714;28;20235;-65
2022/04/06 08:59:25;;;;;;;12.67;7.43;;;;;;;6.19;100.00;99272.72;10547197;28;20306;-66
2022/04/06 09:04:34;;;;;;;12.87;7.30;;;;;;;6.24;100.00;99280.41;10547077;28;20253;-68
2022/04/06 09:09:38;;;;;;;15.03;7.93;;;;;;;6.35;100.00;99258.78;10543916;28;20353;-65
2022/04/06 09:14:43;;;;;;;14.43;7.73;;;;;;;6.50;100.00;99253.50;10510421;28;20230;-65
2022/04/06 09:19:47;;;;;;;12.17;7.57;;;;;;;6.45;100.00;99247.53;10543191;28;20219;-65
2022/04/06 09:24:58;;;;;;;14.50;8.37;;;;;;;6.46;100.00;99238.06;10503919;28;20857;-67
2022/04/06 09:30:06;;;;;;;12.87;7.50;;;;;;;6.49;100.00;99240.63;10542472;28;20667;-66
2022/04/06 09:35:25;;;;;;;12.53;7.13;;;;;;;6.45;100.00;99239.81;10543409;28;20221;-68
2022/04/06 09:40:30;;;;;;;15.43;8.37;;;;;;;6.42;100.00;99234.66;10542067;28;20257;-65
2022/04/06 09:50:56;;;;;;;13.37;7.90;;;;;;;6.38;100.00;99232.16;10541461;28;20215;-66
2022/04/06 09:56:01;;;;;;;12.83;7.97;;;;;;;6.38;100.00;99230.44;10541175;28;20219;-68
2022/04/06 10:01:06;;;;;;;13.60;8.97;;;;;;;6.30;100.00;99228.81;10543492;28;20218;-69
2022/04/06 10:06:10;;;;;;;13.57;8.37;;;;;;;6.37;100.00;99223.56;10540751;28;20672;-66
2022/04/06 10:11:14;;;;;;;14.10;8.07;;;;;;;6.43;100.00;99218.34;10189462;27;10000661;-68
2022/04/06 10:16:20;;;;;;;16.73;9.23;;;;;;;6.49;100.00;99251.75;10540510;28;20227;-66
2022/04/06 10:21:31;;;;;;;15.50;8.73;;;;;;;6.44;100.00;99243.22;10540486;28;20223;-69
2022/04/06 10:26:45;;;;;;;15.60;9.57;;;;;;;6.51;100.00;99223.38;10540812;28;20237;-66
2022/04/06 10:31:50;;;;;;;15.13;9.17;;;;;;;6.60;100.00;99219.00;10540224;28;20219;-67
2022/04/06 10:37:16;;;;;;;15.07;8.83;;;;;;;6.70;100.00;99215.41;10538938;28;20219;-69
2022/04/06 10:42:30;;;;;;;15.60;9.50;;;;;;;6.76;100.00;99217.94;10536189;28;20592;-66
2022/04/06 10:47:35;;;;;;;14.73;9.53;;;;;;;6.85;100.00;99212.63;10539271;28;20226;-67
2022/04/06 10:52:39;;;;;;;20.93;10.23;;;;;;;7.13;100.00;99207.09;10539860;28;20264;-68
2022/04/06 10:58:01;;;;;;;15.87;10.53;;;;;;;7.27;100.00;99199.97;10539374;28;20372;-66
2022/04/06 11:03:18;;;;;;;16.60;10.70;;;;;;;7.44;100.00;99195.41;10539063;28;20223;-67
2022/04/06 11:14:11;;;;;;;17.53;11.30;;;;;;;7.75;100.00;99178.50;10538833;28;20708;-66
2022/04/06 11:19:16;;;;;;;17.57;12.10;;;;;;;8.02;100.00;99175.44;10538657;28;20736;-65
2022/04/06 11:24:23;;;;;;;16.80;12.27;;;;;;;8.07;100.00;99171.03;10539317;28;20215;-68
2022/04/06 11:29:26;;;;;;;18.40;11.60;;;;;;;8.35;100.00;99161.88;10538327;28;20233;-66
2022/04/06 11:34:34;;;;;;;20.83;12.13;;;;;;;8.48;100.00;99170.22;10538738;28;20234;-65
2022/04/06 11:39:37;;;;;;;19.57;12.60;;;;;;;8.63;100.00;99160.41;10538001;28;20219;-66
2022/04/06 11:44:41;;;;;;;21.53;12.23;;;;;;;8.74;100.00;99155.88;10538785;28;20218;-69
2022/04/06 11:49:45;;;;;;;22.80;12.77;;;;;;;8.80;100.00;99152.28;10545408;28;20235;-67
2022/04/06 11:54:51;;;;;;;18.23;12.83;;;;;;;8.82;100.00;99153.09;10546207;28;20249;-66
2022/04/06 11:59:56;;;;;;;20.43;13.80;;;;;;;8.94;100.00;99148.50;10546742;28;20234;-66
2022/04/06 12:05:02;;;;;;;18.73;12.70;;;;;;;9.05;100.00;99145.66;10549518;28;20235;-68
2022/04/06 12:10:06;;;;;;;20.50;12.77;;;;;;;9.17;100.00;99147.97;10548562;28;20573;-67
2022/04/06 12:15:10;;;;;;;18.83;12.87;;;;;;;9.39;100.00;99145.72;10548731;28;20220;-65
2022/04/06 12:20:25;;;;;;;20.97;13.47;;;;;;;9.69;100.00;99144.91;10548217;28;20294;-68
2022/04/06 12:25:29;;;;;;;19.20;13.10;;;;;;;9.75;100.00;99147.38;10548346;28;20236;-67
2022/04/06 12:30:33;;;;;;;18.67;11.73;;;;;;;9.90;100.00;99149.53;10547668;28;20230;-66
2022/04/06 12:35:44;;;;;;;18.90;13.00;;;;;;;10.06;100.00;99153.44;10548306;28;20231;-64
2022/04/06 12:41:03;;;;;;;18.27;12.03;;;;;;;10.14;100.00;99146.31;10547183;28;20220;-66
2022/04/06 12:46:40;;;;;;;15.57;10.80;;;;;;;10.24;100.00;99138.22;10547409;28;20269;-66
2022/04/06 12:51:45;;;;;;;12.17;8.53;;;;;;;10.55;100.00;99142.53;10546893;28;20239;-66
2022/04/06 12:57:10;;;;;;;9.23;6.00;;;;;;;10.99;100.00;99139.44;10547061;28;20231;-65
2022/04/06 13:02:24;;;;;;;9.27;6.83;;;;;;;11.33;100.00;99140.91;10546576;28;20528;-65
2022/04/06 13:07:29;;;;;;;7.83;4.63;;;;;;;11.37;100.00;99142.50;10546049;28;20214;-67
2022/04/06 13:12:41;;;;;;;7.00;4.47;;;;;;;12.61;100.00;99119.91;10191292;27;10000398;-66
2022/04/06 13:17:46;;;;;;;8.40;4.80;;;;;;;12.80;100.00;99119.09;10543220;28;20215;-65
2022/04/06 13:22:52;;;;;;;7.87;4.40;;;;;;;12.86;99.59;99120.63;10542522;28;20710;-64
2022/04/06 13:27:55;;;;;;;10.87;4.97;;;;;;;13.48;97.98;99105.94;10543564;28;20247;-66
2022/04/06 13:32:59;;;;;;;7.30;3.97;;;;;;;14.15;96.46;99103.88;10542564;28;20235;-66
2022/04/06 13:38:03;;;;;;;8.07;4.37;;;;;;;13.84;89.96;99108.75;10542055;28;20219;-68
2022/04/06 13:43:07;;;;;;;10.00;4.90;;;;;;;13.40;90.94;99100.22;10541753;28;20227;-65
2022/04/06 13:48:10;;;;;;;18.77;11.47;;;;;;;13.12;91.40;99106.59;10541561;28;20223;-66
2022/04/06 13:53:15;;;;;;;10.43;5.33;;;;;;;12.72;90.85;99109.91;10542305;28;20247;-66
2022/04/06 13:58:19;;;;;;;8.13;5.97;;;;;;;12.50;92.44;99114.22;10544421;28;20223;-65
2022/04/06 14:03:22;;;;;;;9.43;5.10;;;;;;;12.33;94.69;99116.63;10544379;28;20216;-67
2022/04/06 14:08:27;;;;;;;8.80;5.50;;;;;;;12.21;94.72;99107.53;10544292;28;20215;-65
2022/04/06 14:13:30;;;;;;;8.93;4.93;;;;;;;12.26;95.01;99105.59;10540851;28;20230;-67
2022/04/06 14:18:35;;;;;;;10.07;4.87;;;;;;;12.17;93.84;99098.13;10540820;28;20234;-65
2022/04/06 14:23:40;;;;;;;10.43;5.10;;;;;;;12.10;94.45;99088.84;10540058;28;20218;-63
2022/04/06 14:28:44;;;;;;;10.93;6.57;;;;;;;12.13;94.90;99093.09;10540103;28;20219;-66
2022/04/06 14:33:47;;;;;;;9.50;5.20;;;;;;;12.08;93.99;99093.25;10539847;28;20218;-68
2022/04/06 14:38:52;;;;;;;10.47;5.53;;;;;;;12.07;94.38;99090.72;10539665;28;20682;-65
2022/04/06 14:43:55;;;;;;;10.50;6.53;;;;;;;11.99;95.78;99078.00;10540524;28;20235;-67
2022/04/06 14:48:58;;;;;;;12.80;4.93;;;;;;;11.94;96.13;99073.88;10539474;28;20315;-67
2022/04/06 14:54:03;;;;;;;11.17;5.37;;;;;;;11.93;96.40;99075.63;10538919;28;20241;-64
2022/04/06 14:59:06;;;;;;;11.73;6.20;;;;;;;12.04;96.05;99077.84;10539339;28;20229;-66
2022/04/06 15:04:10;;;;;;;10.40;5.47;;;;;;;12.03;96.06;99079.56;10538781;28;20680;-63
2022/04/06 15:09:15;;;;;;;10.60;5.97;;;;;;;12.07;96.34;99078.56;10539901;28;20229;-66
2022/04/06 15:14:22;;;;;;;9.77;5.50;;;;;;;12.07;96.38;99072.50;10538777;28;20225;-69
2022/04/06 15:19:26;;;;;;;9.83;6.00;;;;;;;12.14;96.47;99066.19;10540202;28;20234;-69
2022/04/06 15:24:31;;;;;;;9.47;5.37;;;;;;;12.18;96.61;99071.19;10548711;28;20203;-66
2022/04/06 15:29:34;;;;;;;8.40;5.00;;;;;;;12.23;96.60;99060.66;10550904;28;20215;-72
2022/04/06 15:40:00;;;;;;;10.37;5.87;;;;;;;12.20;97.02;99055.56;10550252;28;20622;-67
2022/04/06 15:45:05;;;;;;;18.30;8.93;;;;;;;12.26;97.25;99048.38;10550288;28;20223;-73
2022/04/06 15:50:10;;;;;;;8.30;5.20;;;;;;;12.27;96.31;99052.66;10549945;28;20219;-67
2022/04/06 15:55:17;;;;;;;9.83;5.63;;;;;;;12.25;97.53;99053.63;10549229;28;20277;-70
2022/04/06 16:00:22;;;;;;;10.20;5.23;;;;;;;12.20;97.72;99048.59;10550610;28;20196;-68
2022/04/06 16:05:30;;;;;;;9.30;4.17;;;;;;;12.19;96.63;99043.44;10549597;28;20188;-68
2022/04/06 16:10:35;;;;;;;13.67;8.40;;;;;;;12.18;95.97;99041.75;10548893;28;20683;-68
2022/04/06 16:15:39;;;;;;;9.83;4.70;;;;;;;12.16;95.28;99036.63;10547990;28;20202;-69
2022/04/06 16:20:42;;;;;;;9.97;4.90;;;;;;;12.18;93.46;99041.75;10548230;28;20643;-66
2022/04/06 16:25:46;;;;;;;10.23;5.37;;;;;;;12.29;92.31;99042.19;10548741;28;20199;-71
2022/04/06 16:30:50;;;;;;;11.03;4.00;;;;;;;12.24;91.99;99033.72;10548390;28;20664;-65
2022/04/06 16:35:54;;;;;;;7.40;3.73;;;;;;;12.10;92.07;99034.22;10546787;28;20191;-69
2022/04/06 16:40:59;;;;;;;11.47;5.60;;;;;;;12.02;92.74;99044.09;10548049;28;20203;-67
2022/04/06 16:46:04;;;;;;;13.83;7.13;;;;;;;12.06;93.49;99037.84;10547614;28;20658;-66
2022/04/06 16:56:29;;;;;;;9.10;5.10;;;;;;;11.94;94.46;99045.28;10547181;28;20224;-70
2022/04/06 17:01:32;;;;;;;7.90;5.13;;;;;;;11.83;95.05;99042.19;10547070;28;20209;-65
2022/04/06 17:06:37;;;;;;;11.70;5.03;;;;;;;11.71;96.14;99037.44;10546935;28;20187;-67
2022/04/06 17:11:42;;;;;;;9.93;5.60;;;;;;;11.59;96.93;99034.38;10546451;28;20215;-68
2022/04/06 17:16:46;;;;;;;10.67;5.90;;;;;;;11.56;97.56;99038.81;10547931;28;20192;-68
2022/04/06 17:21:50;;;;;;;21.40;13.03;;;;;;;11.52;98.22;99045.88;10189281;27;10000591;-66
2022/04/06 17:26:56;;;;;;;9.37;5.17;;;;;;;11.46;98.46;99040.88;10542496;28;20218;-67
2022/04/06 17:32:07;;;;;;;8.17;4.60;;;;;;;11.44;99.09;99044.44;10542464;28;20321;-64
2022/04/06 17:37:11;;;;;;;9.37;5.90;;;;;;;11.44;99.42;99042.66;10542272;28;20239;-68
2022/04/06 17:42:15;;;;;;;10.57;6.27;;;;;;;11.42;100.00;99049.66;10542905;28;20298;-66
2022/04/06 17:47:19;;;;;;;18.17;10.67;;;;;;;11.41;100.00;99052.31;10541672;28;20218;-66
2022/04/06 17:52:22;;;;;;;11.80;6.07;;;;;;;11.38;100.00;99047.25;10541252;28;20239;-68
2022/04/06 17:57:26;;;;;;;10.63;6.40;;;;;;;11.32;100.00;99053.47;10541700;28;20595;-67
2022/04/06 18:02:30;;;;;;;31.13;17.87;;;;;;;11.27;100.00;99052.78;10542824;28;20233;-69
2022/04/06 18:07:34;;;;;;;12.10;7.20;;;;;;;11.26;100.00;99050.25;10544479;28;20547;-68
2022/04/06 18:17:59;;;;;;;15.83;7.30;;;;;;;11.24;100.00;99052.91;10544321;28;20283;-70
2022/04/06 18:23:03;;;;;;;12.43;8.00;;;;;;;11.23;100.00;99058.16;10539585;28;20227;-67
2022/04/06 18:28:07;;;;;;;15.13;7.37;;;;;;;11.18;100.00;99057.47;10540414;28;20215;-66
2022/04/06 18:33:12;;;;;;;15.53;8.43;;;;;;;11.18;100.00;99062.66;10541150;28;20235;-67
2022/04/06 18:38:20;;;;;;;14.20;8.80;;;;;;;11.11;100.00;99062.00;10208108;27;10000573;-65
2022/04/06 18:43:27;;;;;;;14.13;8.77;;;;;;;11.11;100.00;99058.56;10582097;28;20229;-64
2022/04/06 18:48:32;;;;;;;13.70;8.50;;;;;;;11.09;100.00;99060.34;10581767;28;20298;-65
2022/04/06 18:53:37;;;;;;;13.97;8.70;;;;;;;11.11;100.00;99059.38;10581447;28;20735;-65
2022/04/06 18:58:42;;;;;;;16.17;9.00;;;;;;;11.13;100.00;99056.78;10581463;28;20213;-63
2022/04/06 19:03:45;;;;;;;21.17;11.93;;;;;;;11.09;100.00;99057.75;10581315;28;20211;-68
2022/04/06 19:08:49;;;;;;;16.50;9.87;;;;;;;11.12;100.00;99055.91;10581226;28;20218;-65
2022/04/06 19:13:54;;;;;;;13.83;9.17;;;;;;;11.08;100.00;99048.28;10581140;28;20225;-69
2022/04/06 19:18:57;;;;;;;14.13;9.53;;;;;;;11.03;100.00;99047.56;10580860;28;20213;-68
2022/04/06 19:24:00;;;;;;;14.93;9.53;;;;;;;11.03;100.00;99039.78;10581937;28;20225;-68
2022/04/06 19:29:05;;;;;;;15.20;9.73;;;;;;;11.01;100.00;99039.00;10580775;28;20283;-69
2022/04/06 19:34:09;;;;;;;14.70;10.60;;;;;;;11.09;100.00;99034.41;10580714;28;20244;-67
2022/04/06 19:39:12;;;;;;;15.30;10.00;;;;;;;11.05;100.00;99033.66;10552944;28;20211;-68
2022/04/06 19:44:17;;;;;;;13.83;9.83;;;;;;;11.05;100.00;99028.44;10538861;28;20233;-68
2022/04/06 19:49:21;;;;;;;12.97;9.67;;;;;;;11.03;100.00;99031.97;10538993;28;20219;-68
2022/04/06 19:54:24;;;;;;;14.57;9.83;;;;;;;11.00;100.00;99022.56;10538168;28;20227;-69
2022/04/06 19:59:29;;;;;;;14.83;9.30;;;;;;;11.02;100.00;99018.19;10538185;28;20280;-69
2022/04/06 20:04:33;;;;;;;15.23;8.43;;;;;;;10.99;100.00;99009.66;10538663;28;20267;-67
2022/04/06 20:09:37;;;;;;;20.93;12.10;;;;;;;10.95;100.00;98998.50;10542772;28;20379;-67
2022/04/06 20:14:42;;;;;;;15.70;9.97;;;;;;;10.95;100.00;98992.47;10546249;28;20219;-68
2022/04/06 20:19:45;;;;;;;24.73;14.40;;;;;;;10.91;100.00;98983.94;10545694;28;20646;-67
2022/04/06 20:24:48;;;;;;;15.17;9.43;;;;;;;10.88;100.00;98994.41;10545198;28;20220;-69
2022/04/06 20:29:54;;;;;;;14.00;9.07;;;;;;;10.86;100.00;98983.25;10544761;28;20556;-69
2022/04/06 20:35:02;;;;;;;15.47;9.50;;;;;;;10.86;100.00;98977.19;10545011;28;20218;-72
2022/04/06 20:40:09;;;;;;;15.53;9.70;;;;;;;10.84;100.00;98972.06;10580705;28;20249;-69
2022/04/06 20:45:14;;;;;;;13.97;8.73;;;;;;;10.80;100.00;98972.22;10586936;28;20229;-67
2022/04/06 20:50:18;;;;;;;17.70;10.87;;;;;;;10.74;100.00;98973.25;10586751;28;20690;-68
2022/04/06 20:55:22;;;;;;;13.40;8.87;;;;;;;10.66;100.00;98970.09;10586224;28;20298;-68
2022/04/06 21:00:27;;;;;;;14.00;8.33;;;;;;;10.71;100.00;98968.19;10586249;28;20305;-69
2022/04/06 21:05:31;;;;;;;13.87;8.37;;;;;;;10.69;100.00;98969.13;10586574;28;20290;-68
2022/04/06 21:10:34;;;;;;;12.03;7.87;;;;;;;10.73;100.00;98961.19;10585517;28;20742;-70
2022/04/06 21:15:39;;;;;;;14.33;9.63;;;;;;;10.68;100.00;98952.72;10585649;28;20206;-65
2022/04/06 21:20:43;;;;;;;15.37;9.07;;;;;;;10.68;100.00;98951.88;10584036;28;20330;-67
2022/04/06 21:25:46;;;;;;;13.83;8.63;;;;;;;10.66;100.00;98954.50;10585247;28;20273;-68
2022/04/06 21:30:51;;;;;;;13.00;8.27;;;;;;;10.66;100.00;98949.31;10585868;28;20303;-68
2022/04/06 21:35:54;;;;;;;13.73;8.03;;;;;;;10.67;100.00;98932.84;10563070;28;20241;-65
2022/04/06 21:40:57;;;;;;;16.33;10.27;;;;;;;10.63;100.00;98933.84;10501414;28;20202;-69
2022/04/06 21:46:02;;;;;;;13.30;8.17;;;;;;;10.62;100.00;98931.28;10500526;28;20207;-65
2022/04/06 21:51:05;;;;;;;15.07;8.23;;;;;;;10.66;100.00;98931.16;10500089;28;20533;-66
2022/04/06 21:56:09;;;;;;;15.30;8.70;;;;;;;10.65;100.00;98926.84;10501800;28;20212;-67
2022/04/06 22:01:16;;;;;;;14.53;9.50;;;;;;;10.63;100.00;98926.06;10502059;28;20256;-67
2022/04/06 22:06:20;;;;;;;19.13;11.30;;;;;;;10.63;100.00;98909.66;10505102;28;20285;-63
2022/04/06 22:11:24;;;;;;;17.73;9.20;;;;;;;10.59;100.00;98908.91;10503690;28;20250;-67
2022/04/06 22:16:29;;;;;;;15.20;8.70;;;;;;;10.56;100.00;98916.78;10502576;28;20231;-64
2022/04/06 22:21:32;;;;;;;13.53;8.93;;;;;;;10.49;100.00;98904.94;10502712;28;20677;-66
2022/04/06 22:26:36;;;;;;;16.17;9.80;;;;;;;10.47;100.00;98914.50;10501936;28;20549;-67
2022/04/06 22:31:41;;;;;;;65.97;41.03;;;;;;;10.38;100.00;98901.84;10500854;28;20238;-63
2022/04/06 22:36:44;;;;;;;14.93;8.73;;;;;;;10.44;100.00;98899.03;10501392;28;20258;-68
2022/04/06 22:41:47;;;;;;;15.47;9.33;;;;;;;10.37;100.00;98894.97;10501126;28;20224;-66
2022/04/06 22:46:53;;;;;;;25.63;14.10;;;;;;;10.39;100.00;98891.41;10501384;28;20223;-68
2022/04/06 22:51:56;;;;;;;18.77;9.20;;;;;;;10.29;100.00;98882.22;10501177;28;20242;-66
2022/04/06 22:57:00;;;;;;;17.07;9.20;;;;;;;10.24;100.00;98878.94;10501134;28;20553;-67
2022/04/06 23:02:05;;;;;;;17.97;8.53;;;;;;;10.23;100.00;98876.41;10500838;28;20673;-66
2022/04/06 23:07:08;;;;;;;14.87;7.93;;;;;;;10.16;100.00;98874.91;10500796;28;20285;-69
2022/04/06 23:12:12;;;;;;;16.60;8.67;;;;;;;10.08;100.00;98871.66;10498736;28;20575;-65
2022/04/06 23:17:17;;;;;;;15.07;8.00;;;;;;;9.97;100.00;98866.84;10497600;28;20230;-69
2022/04/06 23:22:20;;;;;;;13.87;8.13;;;;;;;9.96;100.00;98859.94;10497703;28;20230;-68
2022/04/06 23:27:24;;;;;;;14.03;7.40;;;;;;;9.95;100.00;98845.31;10497487;28;20228;-69
2022/04/06 23:32:29;;;;;;;15.07;7.80;;;;;;;9.94;100.00;98845.38;10496978;28;20232;-69
2022/04/06 23:37:32;;;;;;;13.20;7.53;;;;;;;9.94;100.00;98842.78;10497881;28;20568;-69
2022/04/06 23:42:36;;;;;;;14.53;8.70;;;;;;;9.88;100.00;98825.66;10498920;28;20684;-67